Lompoc, CA

9:38 AM PST on December 09, 2016 (GMT -0800)
Lompoc | | Change Station

Elev 89 ft 34.67 °N, 120.47 °W | Updated 24 minutes ago

Overcast
Overcast
61 °F
Feels Like 61 °F
N
6
Wind Variable Wind from East

Today
High -- | Low -- °F
--% Chance of Precip.
Yesterday
High -- | Low -- °F
Precip. -- in
Pressure 30.28 in
Visibility 10.0 miles
Clouds Scattered Clouds 2100 ft
Overcast 3400 ft
Dew Point 59 °F
Humidity 94%
Rainfall 0.28 in
Snow Depth Not available.
6:57 AM 4:51 PM
Waxing Gibbous, 75% visible
SPECI KLPC 091714Z AUTO 10005KT 10SM SCT021 OVC034 16/15 A3028 RMK AO2
Pressure 30.28 in
Visibility 10.0 miles
Clouds Scattered Clouds 2100 ft
Overcast 3400 ft
Dew Point 59 °F
Humidity 94%
Rainfall 0.28 in
Snow Depth Not available.
6:57 AM 4:51 PM
Waxing Gibbous, 75% visible
SPECI KLPC 091714Z AUTO 10005KT 10SM SCT021 OVC034 16/15 A3028 RMK AO2

10-Day Weather Forecast

Almanac

Astronomy

Dec. 09, 2016 Rise Set
Actual Time
Civil Twilight
Nautical Twilight
Astronomical Twilight
Moon
Length of Visible Light
Length of Day
Tomorrow will be .
, % of the Moon is Illuminated

Today's Extremes

State Highs State Lows

Community

WunderPhotos

Upload Photos

1,956,462 photos uploaded!

WunderBlog® & News

Nearby

Air Quality

  Air Quality AQ Index Pollutant
Not available.

Snow Depth

Station Depth Elevation

Earthquake Activity

City Distance Mag. Time & Date
Minimum magnitude displayed is 2.5.

Coastal Water Temperatures

Place Temperature

Stations

Nearby Weather Stations

Station Location Temp. Windchill Dew Point Humidity Wind Precip. Elev Updated Type
                   

Watches & Warnings

There are currently no watches in effect.